82cook.com을 즐겨찾기에 추가
login form

자유게시판

드러낼 수 없는 고민을 풀어보는 속풀이방

Banner

북한 핵 미사일 공격시.. 미국 MD로 막아낼수 없어

걱정하는과학자 조회수 : 524
작성일 : 2016-07-22 22:18:36
http://www.vop.co.kr/A00001049757.html

MD로 미 본토 방어도 불가
 

미국 본토 방어의 핵심인 지상 배치 미사일 방어체계(GMD, Ground-Based Midcourse Defense)로는 북한 핵미사일 공격을 막아낼 수 없다면서 GMD 포대 확장 설치를 중단하라고 촉구했다.

로스앤젤레스타임스(LAT) 등 미 언론에 따르면 미국의 비영리 단체 ‘걱정하는 과학자 모임’(UCS)은 현재의 GMD로 미 주요 도시들에 대한 북한 핵미사일 공격을 방어할 수 없어 버락 오바마 행정부가 포대 확대배치 계획을 그만둬야 한다는 내용의 보고서를 15일에 발표했다.

요격 미사일 분야의 전문가인 세 명의 물리학자가 참여한 60쪽 분량의 이 보고서는 GMD가 기술적으로 여러 문제를 드러냈으며, 이 문제가 해결되기 전에 배치를 확대하려는 계획을 중지해야 한다고 주장했다.

한편 지난 1969년 매사추세츠공대(MIT) 소속 교수들과 학생들을 주축으로 결성된 CSU는 미국이 개발한 과학과 기술이 군사적으로 잘못 사용되는 것을 감시하는 활동을 하고 있다.

IP : 1.243.xxx.166
0 개의 댓글이 있습니다.
    ☞ 로그인 후 의견을 남기실 수 있습니다
    댓글입력 작성자 :

    N

    번호 제목 작성자 날짜 조회
    669777 안명박과 홍x현이 물밑에서 움직이다 6 위기의식 2017/04/06 603
    669776 아랫집 소음 엄청 올라오네요 1 어휴 2017/04/06 1,905
    669775 꼭 봐주세요- [뉴스포차] 세월호3주기 특집 ‘눈동자’(소설가 .. 1 고딩맘 2017/04/06 381
    669774 원룸주택 건물주님들 문의 5 vv 2017/04/06 1,372
    669773 아침부터 눈물만 흘리고 있네요..ㅠㅠ 22 아마 2017/04/06 18,948
    669772 교통사고 합의금 조언 부탁드려요. 2 ... 2017/04/06 1,075
    669771 안철수 마타도어가 이렇게나 심하다니 둣목 잡고 싶어지네요 61 예원맘 2017/04/06 1,503
    669770 와중에죄송)부동산 복비 여쭤요 1년내 2건 팔고 사게되었는데요... 적폐청산 2017/04/06 390
    669769 강헌 명리학- 안철수 명식풀이 kkk 2017/04/06 1,981
    669768 여러분 심상정은요? 24 궁금함 2017/04/06 1,321
    669767 같이 일하게 될 상사의 평판.. 4 흠.. 2017/04/06 866
    669766 지역구 선거할때 중앙당 지원 받은거는 내놓고 나가야지 2 탈당입당 2017/04/06 306
    669765 혹시 50 넘어서 까지 탁구 치고 계신분~~ 4 몸매 관리 2017/04/06 1,505
    669764 중3아이 조퇴~~ 6 조퇴 2017/04/06 1,173
    669763 이언주 진짜 대단하네요. 35 ㅎㅎ 2017/04/06 3,313
    669762 아이들 학습관리 어떻게 하세요? 6 어설픈엄마 2017/04/06 918
    669761 운동다니면 원래 회식도 하고 그러나요? 6 ~~ 2017/04/06 1,172
    669760 헐..국민의당 차떼기 경선에 조폭동원의혹 24 ㄷㄷㄷ 2017/04/06 770
    669759 강남에서 제일 살기 편한데가 어디인가요? 18 .. 2017/04/06 2,959
    669758 4월... 요즘 같은 때 딱 어울리는 노래 소개: 노영심 4월이.. 이맘때 2017/04/06 627
    669757 21개월아기 수면치료 잘하는곳 있을까요? ..ㅠ 6 2017/04/06 1,171
    669756 이언주 탈당 “안철수와 몇 달 전부터 논의, 김종인에게는 결정 .. 30 와우~ 2017/04/06 972
    669755 김미경교수 채용, 아름다우면서도 찜찜한게 15 ㅇㅇ 2017/04/06 1,242
    669754 양자토론 기회균등에 어긋난다고 하시는데 2 선거 2017/04/06 332
    669753 주갤에는 일베충 많아요. 12 ... 2017/04/06 488